Time;durP1;ratioP1;P1;durP2;ratioP2;P2;SDS_P1;SDS_P2;PMS_P1;PMS_P2;Temp;Humidity;BMP_temperature;BMP_pressure;BME280_temperature;BME280_humidity;BME280_pressure;Samples;Min_cycle;Max_cycle;Signal;HPM_P1;HPM_P2
2021/11/01 00:02:00;;;;;;;34.42;20.88;;;180.00;2252.80;;;;;;5135818;27;20056;-76
2021/11/01 00:04:26;;;;;;;41.13;22.52;;;179.90;2252.80;;;;;;5135814;27;20023;-76
2021/11/01 00:06:52;;;;;;;36.10;24.95;;;179.80;2252.80;;;;;;5124725;27;20028;-76
2021/11/01 00:09:18;;;;;;;48.20;27.75;;;179.70;2252.80;;;;;;5133831;27;20027;-76
2021/11/01 00:11:44;;;;;;;37.25;23.33;;;179.60;2252.80;;;;;;5135659;27;20031;-76
2021/11/01 00:14:10;;;;;;;46.30;26.27;;;179.60;2252.80;;;;;;5135886;27;20029;-75
2021/11/01 00:16:36;;;;;;;42.35;28.33;;;179.70;2252.80;;;;;;5136946;27;20102;-75
2021/11/01 00:19:02;;;;;;;38.35;23.85;;;179.70;2252.80;;;;;;5135726;27;20043;-76
2021/11/01 00:21:28;;;;;;;39.90;23.98;;;179.70;2252.80;;;;;;5121065;27;20029;-77
2021/11/01 00:23:54;;;;;;;39.80;21.92;;;179.80;2252.80;;;;;;5135328;27;20027;-75
2021/11/01 00:26:20;;;;;;;38.85;20.98;;;179.90;2252.80;;;;;;5134861;27;20076;-75
2021/11/01 00:28:48;;;;;;;39.80;20.23;;;180.00;2252.80;;;;;;5135424;27;20019;-76
2021/11/01 00:31:14;;;;;;;30.27;18.90;;;180.10;2252.80;;;;;;5136640;27;20115;-76
2021/11/01 00:33:40;;;;;;;32.25;20.23;;;180.10;2252.80;;;;;;5136842;27;20444;-76
2021/11/01 00:36:06;;;;;;;30.90;18.20;;;204.80;2252.80;;;;;;5133601;27;20055;-76
2021/11/01 00:38:32;;;;;;;31.00;19.05;;;204.80;2252.80;;;;;;5120736;27;20011;-75
2021/11/01 00:40:58;;;;;;;31.60;19.38;;;204.80;2252.80;;;;;;5136401;27;20426;-76
2021/11/01 00:43:24;;;;;;;33.20;18.00;;;204.80;2252.80;;;;;;5136138;27;20031;-76
2021/11/01 00:45:49;;;;;;;26.83;18.27;;;204.80;2252.80;;;;;;5136474;27;20047;-76
2021/11/01 00:48:16;;;;;;;29.45;18.98;;;204.80;2252.80;;;;;;5134513;27;20126;-75
2021/11/01 00:50:43;;;;;;;38.50;21.80;;;204.90;2252.80;;;;;;5134931;27;20027;-76
2021/11/01 00:53:09;;;;;;;33.45;21.27;;;180.10;2252.80;;;;;;5135989;27;20015;-75
2021/11/01 00:55:49;;;;;;;35.60;20.92;;;180.10;2252.80;;;;;;5134612;27;20102;-75
2021/11/01 00:58:15;;;;;;;31.63;19.42;;;179.90;2252.80;;;;;;5136064;27;20011;-76
2021/11/01 01:00:42;;;;;;;33.45;19.52;;;180.00;2252.80;;;;;;5122825;27;20047;-76
2021/11/01 01:03:10;;;;;;;26.13;17.92;;;180.00;2252.80;;;;;;5126698;27;20059;-76
2021/11/01 01:05:37;;;;;;;27.55;18.42;;;180.00;2252.80;;;;;;5134469;27;20027;-76
2021/11/01 01:08:03;;;;;;;31.40;20.48;;;180.00;2252.80;;;;;;5136037;27;20030;-76
2021/11/01 01:10:29;;;;;;;32.63;19.58;;;180.00;2252.80;;;;;;5134221;27;20027;-76
2021/11/01 01:12:55;;;;;;;35.78;19.63;;;180.00;2252.80;;;;;;5133623;27;20076;-76
2021/11/01 01:15:23;;;;;;;29.83;18.83;;;180.00;2252.80;;;;;;5134160;27;20019;-76
2021/11/01 01:17:51;;;;;;;31.35;19.98;;;180.00;2252.80;;;;;;5121811;27;20023;-76
2021/11/01 01:20:20;;;;;;;31.33;19.73;;;180.00;2252.80;;;;;;5134405;27;20027;-76
2021/11/01 01:22:46;;;;;;;25.85;18.23;;;179.90;2252.80;;;;;;5129666;27;20027;-75
2021/11/01 01:25:21;;;;;;;29.98;17.90;;;180.00;2252.80;;;;;;5133410;27;20049;-76
2021/11/01 01:27:49;;;;;;;29.10;17.85;;;180.00;2252.80;;;;;;5133450;27;20513;-76
2021/11/01 01:30:16;;;;;;;30.65;17.20;;;180.00;2252.80;;;;;;5132527;27;20072;-76
2021/11/01 01:32:44;;;;;;;28.15;19.05;;;180.00;2252.80;;;;;;5134195;27;20023;-76
2021/11/01 01:35:10;;;;;;;31.60;18.08;;;180.00;2252.80;;;;;;5135226;27;20020;-77
2021/11/01 01:37:37;;;;;;;27.67;18.75;;;180.10;2252.80;;;;;;5133933;27;20088;-76
2021/11/01 01:40:06;;;;;;;28.83;19.23;;;180.00;2252.80;;;;;;5134915;27;20020;-76
2021/11/01 01:42:32;;;;;;;29.48;17.42;;;180.00;2252.80;;;;;;5133873;27;20107;-76
2021/11/01 01:44:58;;;;;;;31.45;18.10;;;180.00;2252.80;;;;;;5133724;27;20428;-76
2021/11/01 01:47:24;;;;;;;31.70;18.63;;;180.00;2252.80;;;;;;5135062;27;20106;-76
2021/11/01 01:49:50;;;;;;;29.25;18.20;;;179.90;2252.80;;;;;;5121265;27;20035;-76
2021/11/01 01:52:16;;;;;;;28.27;18.77;;;179.90;2252.80;;;;;;5134990;27;20019;-76
2021/11/01 01:54:43;;;;;;;32.80;17.30;;;179.90;2252.80;;;;;;5120357;27;20024;-75
2021/11/01 01:57:08;;;;;;;28.75;16.98;;;180.00;2252.80;;;;;;5124940;27;20015;-76
2021/11/01 02:07:13;;;;;;;23.05;15.80;;;180.00;2252.80;;;;;;5124967;27;20030;-77
2021/11/01 02:10:03;;;;;;;27.38;16.00;;;180.10;2252.80;;;;;;5122065;27;20441;-76
2021/11/01 02:12:41;;;;;;;22.15;14.65;;;180.10;2252.80;;;;;;5132353;27;20039;-76
2021/11/01 02:15:15;;;;;;;25.75;17.17;;;180.10;2252.80;;;;;;5133858;27;20050;-76
2021/11/01 02:17:42;;;;;;;23.33;16.58;;;180.10;2252.80;;;;;;5117305;27;20023;-76
2021/11/01 02:20:13;;;;;;;31.83;16.40;;;180.10;2252.80;;;;;;5133081;27;20027;-76
2021/11/01 02:23:12;;;;;;;28.15;17.52;;;180.00;2252.80;;;;;;5132084;27;20026;-76
2021/11/01 02:25:51;;;;;;;26.40;16.65;;;180.00;2252.80;;;;;;5131892;27;20072;-76
2021/11/01 02:28:21;;;;;;;27.42;17.35;;;180.00;2252.80;;;;;;5131089;27;20027;-76
2021/11/01 02:30:49;;;;;;;28.75;17.67;;;180.00;2252.80;;;;;;5132916;27;20062;-75
2021/11/01 02:33:16;;;;;;;27.70;17.80;;;179.90;2252.80;;;;;;5130336;27;20055;-76
2021/11/01 02:35:43;;;;;;;30.58;16.42;;;179.90;2252.80;;;;;;5131900;27;20031;-76
2021/11/01 02:38:13;;;;;;;29.05;18.27;;;179.90;2252.80;;;;;;5131353;27;20027;-75
2021/11/01 02:40:39;;;;;;;27.95;18.58;;;179.90;2252.80;;;;;;5131688;27;20034;-76
2021/11/01 02:43:05;;;;;;;30.58;16.10;;;179.90;2252.80;;;;;;5128589;27;20047;-76
2021/11/01 02:45:31;;;;;;;32.83;16.73;;;179.90;2252.80;;;;;;5131963;27;20038;-76
2021/11/01 02:47:57;;;;;;;26.30;18.55;;;179.90;2252.80;;;;;;5130003;27;20050;-76
2021/11/01 02:50:23;;;;;;;33.10;21.05;;;179.90;2252.80;;;;;;5099539;27;20398;-76
2021/11/01 02:52:49;;;;;;;37.30;20.20;;;179.80;2252.80;;;;;;5118090;27;20027;-76
2021/11/01 02:55:16;;;;;;;25.77;16.63;;;179.80;2252.80;;;;;;5123651;27;20024;-76
2021/11/01 02:57:43;;;;;;;31.70;19.05;;;179.90;2252.80;;;;;;5118152;27;20368;-76
2021/11/01 03:00:11;;;;;;;30.42;17.73;;;179.80;2252.80;;;;;;5146889;27;20440;-76
2021/11/01 03:02:36;;;;;;;35.85;20.90;;;179.90;2252.80;;;;;;5104866;27;20059;-76
2021/11/01 03:05:15;;;;;;;40.45;23.45;;;179.80;2252.80;;;;;;5114588;27;20111;-76
2021/11/01 03:07:42;;;;;;;39.35;22.10;;;179.90;2252.80;;;;;;5114239;27;20019;-76
2021/11/01 03:10:09;;;;;;;36.63;21.75;;;179.80;2252.80;;;;;;5113932;27;20501;-76
2021/11/01 03:12:39;;;;;;;29.63;18.65;;;179.80;2252.80;;;;;;5132586;27;20023;-76
2021/11/01 03:15:08;;;;;;;30.40;19.40;;;179.80;2252.80;;;;;;5114051;27;20031;-76
2021/11/01 03:17:43;;;;;;;27.77;18.75;;;179.80;2252.80;;;;;;5122709;27;20027;-76
2021/11/01 03:20:14;;;;;;;25.33;16.33;;;179.80;2252.80;;;;;;5137852;27;20022;-76
2021/11/01 03:22:44;;;;;;;27.70;17.55;;;179.80;2252.80;;;;;;5153186;27;20026;-76
2021/11/01 03:25:14;;;;;;;30.75;16.63;;;179.80;2252.80;;;;;;5110670;27;20562;-76
2021/11/01 03:27:42;;;;;;;30.15;16.92;;;179.80;2252.80;;;;;;5116938;27;20768;-77
2021/11/01 03:30:10;;;;;;;23.85;17.00;;;179.70;2252.80;;;;;;5135256;27;20114;-76
2021/11/01 03:32:36;;;;;;;27.83;17.67;;;179.70;2252.80;;;;;;5134247;27;20027;-76
2021/11/01 03:35:03;;;;;;;29.30;17.30;;;179.70;2252.80;;;;;;5124594;27;20023;-76
2021/11/01 03:37:30;;;;;;;28.23;19.23;;;179.60;2252.80;;;;;;5128728;27;20471;-76
2021/11/01 03:39:58;;;;;;;32.95;17.80;;;179.60;2252.80;;;;;;5114694;27;20015;-76
2021/11/01 03:42:25;;;;;;;32.65;17.70;;;179.60;2252.80;;;;;;5114166;27;20683;-76
2021/11/01 03:44:59;;;;;;;29.48;17.77;;;179.40;2252.80;;;;;;5103699;28;20024;-76
2021/11/01 03:47:26;;;;;;;27.92;16.60;;;179.40;2252.80;;;;;;5128169;28;20072;-77
2021/11/01 03:49:57;;;;;;;27.75;17.20;;;179.30;2252.80;;;;;;5123681;28;20022;-77
2021/11/01 03:52:25;;;;;;;28.52;18.23;;;179.40;2252.80;;;;;;5106668;28;20023;-76
2021/11/01 03:54:52;;;;;;;34.42;19.13;;;179.30;2252.80;;;;;;5106829;28;20012;-76
2021/11/01 03:57:19;;;;;;;32.95;18.60;;;179.40;2252.80;;;;;;5106838;28;20023;-76
2021/11/01 03:59:46;;;;;;;36.58;18.40;;;179.40;2252.80;;;;;;5141062;27;20092;-76
2021/11/01 04:02:17;;;;;;;28.25;16.10;;;179.50;2252.80;;;;;;5123566;28;20072;-76
2021/11/01 04:04:46;;;;;;;31.10;17.42;;;179.50;2252.80;;;;;;5146474;27;20116;-76
2021/11/01 04:07:12;;;;;;;31.38;17.38;;;179.40;2252.80;;;;;;5113005;28;20026;-76
2021/11/01 04:09:38;;;;;;;30.98;17.85;;;179.40;2252.80;;;;;;5115823;27;20023;-75
2021/11/01 04:12:04;;;;;;;28.80;18.50;;;179.40;2252.80;;;;;;5113220;28;20432;-76
2021/11/01 04:14:37;;;;;;;28.27;18.13;;;179.30;2252.80;;;;;;5131684;28;20027;-75
2021/11/01 04:17:09;;;;;;;25.60;16.98;;;179.30;2252.80;;;;;;5131505;28;20011;-76
2021/11/01 04:19:45;;;;;;;27.25;17.98;;;179.30;2252.80;;;;;;5112526;28;20034;-75
2021/11/01 04:22:11;;;;;;;35.00;18.87;;;179.30;2252.80;;;;;;5126652;28;20023;-75
2021/11/01 04:24:36;;;;;;;30.02;19.02;;;179.30;2252.80;;;;;;5113198;28;20418;-75
2021/11/01 04:27:03;;;;;;;31.08;18.90;;;179.30;2252.80;;;;;;5105798;28;20126;-75
2021/11/01 04:29:32;;;;;;;29.70;18.75;;;179.40;2252.80;;;;;;5109046;28;20024;-76
2021/11/01 04:32:10;;;;;;;29.02;18.45;;;179.30;2252.80;;;;;;5120404;28;20100;-76
2021/11/01 04:34:40;;;;;;;31.45;20.17;;;179.20;2252.80;;;;;;5113189;28;20055;-76
2021/11/01 04:37:05;;;;;;;32.95;19.13;;;179.30;2252.80;;;;;;5112289;27;20031;-76
2021/11/01 04:53:30;;;;;;;30.05;19.25;;;179.20;2252.80;;;;;;5040747;28;20539;-76
2021/11/01 04:55:56;;;;;;;28.52;18.60;;;179.20;2252.80;;;;;;5051741;28;20025;-75
2021/11/01 04:58:23;;;;;;;34.53;22.35;;;179.20;2252.80;;;;;;5041816;28;20028;-75
2021/11/01 05:00:51;;;;;;;32.38;21.67;;;179.30;2252.80;;;;;;5057420;28;20033;-76
2021/11/01 05:05:42;;;;;;;31.85;20.83;;;179.30;2252.80;;;;;;5063852;28;20405;-76
2021/11/01 05:08:09;;;;;;;33.70;22.27;;;179.30;2252.80;;;;;;5061272;28;21003;-76
2021/11/01 05:10:40;;;;;;;37.58;22.85;;;179.30;2252.80;;;;;;5050727;28;20112;-76
2021/11/01 05:13:12;;;;;;;36.00;23.15;;;179.20;2252.80;;;;;;5089081;27;20027;-76
2021/11/01 05:15:48;;;;;;;37.67;22.85;;;179.30;2252.80;;;;;;5115432;27;20015;-75
2021/11/01 05:20:55;;;;;;;36.22;23.85;;;179.40;2252.80;;;;;;5131122;27;20092;-75
2021/11/01 05:25:57;;;;;;;37.67;22.58;;;179.40;2252.80;;;;;;5129955;27;20027;-76
2021/11/01 05:28:42;;;;;;;40.33;23.50;;;179.50;2252.80;;;;;;5116063;27;20114;-75
2021/11/01 05:31:25;;;;;;;37.67;24.27;;;179.50;2252.80;;;;;;5114719;27;20035;-76
2021/11/01 05:36:21;;;;;;;34.92;22.25;;;179.50;2252.80;;;;;;5128808;27;20024;-76
2021/11/01 05:38:48;;;;;;;36.80;23.77;;;179.50;2252.80;;;;;;5114108;27;20046;-76
2021/11/01 05:41:14;;;;;;;39.35;23.30;;;179.60;2252.80;;;;;;5108662;27;20058;-76
2021/11/01 05:43:40;;;;;;;35.40;24.33;;;179.60;2252.80;;;;;;5112630;28;20055;-76
2021/11/01 05:46:05;;;;;;;38.53;23.42;;;179.70;2252.80;;;;;;5111892;27;20027;-76
2021/11/01 05:48:31;;;;;;;37.30;22.98;;;179.70;2252.80;;;;;;5113729;27;20042;-75
2021/11/01 05:50:57;;;;;;;35.90;23.02;;;179.70;2252.80;;;;;;5129080;27;20039;-75
2021/11/01 05:53:26;;;;;;;43.00;25.75;;;179.80;2252.80;;;;;;5105548;28;20020;-75
2021/11/01 05:58:38;;;;;;;38.45;23.95;;;179.90;2252.80;;;;;;5124870;27;20046;-76
2021/11/01 06:06:22;;;;;;;44.60;25.77;;;180.00;2252.80;;;;;;5126039;27;20015;-78
2021/11/01 06:14:16;;;;;;;38.20;27.08;;;180.00;2252.80;;;;;;5127254;27;20395;-76
2021/11/01 06:16:42;;;;;;;42.42;25.10;;;180.00;2252.80;;;;;;5123426;27;20023;-76
2021/11/01 06:19:07;;;;;;;48.40;27.38;;;180.10;2252.80;;;;;;5107159;27;20035;-76
2021/11/01 06:21:34;;;;;;;49.67;29.17;;;180.10;2252.80;;;;;;5122392;27;20031;-76
2021/11/01 06:24:07;;;;;;;38.95;26.63;;;180.10;2252.80;;;;;;5105409;27;20037;-76
2021/11/01 06:26:32;;;;;;;39.55;26.80;;;204.90;2252.80;;;;;;5108127;27;20027;-76
2021/11/01 06:29:05;;;;;;;44.10;27.50;;;205.00;2252.80;;;;;;5100440;27;20072;-76
2021/11/01 06:31:36;;;;;;;44.00;28.85;;;205.00;2252.80;;;;;;5120836;27;20131;-75
2021/11/01 06:44:54;;;;;;;47.78;29.63;;;205.40;2252.80;;;;;;5120203;27;20122;-76
2021/11/01 06:50:18;;;;;;;34.47;23.38;;;205.70;2252.80;;;;;;5124360;27;20039;-75
2021/11/01 07:22:22;;;;;;;38.70;24.50;;;256.20;2252.80;;;;;;5121231;27;20096;-78
2021/11/01 08:48:53;;;;;;;22.98;17.98;;;409.90;2355.20;;;;;;5128463;27;20092;-75
2021/11/01 09:05:01;;;;;;;26.92;16.90;;;435.20;2355.20;;;;;;5126985;27;20092;-75
2021/11/01 09:26:13;;;;;;;20.95;16.35;;;461.70;2380.80;;;;;;5133137;27;20510;-75
2021/11/01 09:41:28;;;;;;;24.15;16.70;;;486.90;2380.80;;;;;;5124594;27;20026;-75
2021/11/01 09:43:57;;;;;;;22.48;14.88;;;486.60;2380.80;;;;;;5105051;28;20031;-75
2021/11/01 09:46:25;;;;;;;20.33;15.50;;;486.60;2380.80;;;;;;5122514;27;20023;-74
2021/11/01 09:51:50;;;;;;;23.55;15.85;;;487.00;2380.80;;;;;;5064366;28;20036;-75
2021/11/01 09:54:20;;;;;;;21.40;16.25;;;487.30;2380.80;;;;;;5082815;28;20439;-75
2021/11/01 09:57:05;;;;;;;24.05;18.15;;;487.10;2380.80;;;;;;5074259;28;20024;-75
2021/11/01 09:59:35;;;;;;;20.75;15.52;;;512.10;2380.80;;;;;;5072839;28;20025;-75
2021/11/01 10:02:02;;;;;;;25.17;15.60;;;512.30;2380.80;;;;;;5047370;28;20033;-75
2021/11/01 10:04:30;;;;;;;23.45;15.63;;;512.00;2380.80;;;;;;5064777;28;20469;-75
2021/11/01 10:07:22;;;;;;;24.15;15.60;;;512.20;2380.80;;;;;;5065709;28;20389;-75
2021/11/01 10:09:59;;;;;;;19.83;14.05;;;512.00;2380.80;;;;;;5070135;28;20040;-74
2021/11/01 10:12:34;;;;;;;23.27;15.73;;;512.60;2380.80;;;;;;5070258;28;20032;-74
2021/11/01 10:18:08;;;;;;;21.38;15.30;;;537.60;2406.40;;;;;;5070430;28;20032;-75
2021/11/01 10:20:45;;;;;;;21.10;15.73;;;537.60;2406.40;;;;;;5068663;28;20042;-75
2021/11/01 10:23:16;;;;;;;21.38;16.08;;;512.80;2380.80;;;;;;5066841;28;20021;-74
2021/11/01 10:25:42;;;;;;;23.75;17.55;;;537.60;2406.40;;;;;;5053348;28;20020;-74
2021/11/01 10:28:08;;;;;;;20.20;16.48;;;537.80;2406.40;;;;;;5090304;28;20028;-75
2021/11/01 10:30:36;;;;;;;19.90;15.20;;;538.00;2380.80;;;;;;5107807;27;20034;-75
2021/11/01 10:33:06;;;;;;;20.73;16.38;;;537.80;2355.20;;;;;;5129538;27;20015;-74
2021/11/01 10:35:40;;;;;;;20.83;15.65;;;537.80;2355.20;;;;;;5106294;27;20652;-75
2021/11/01 10:38:24;;;;;;;26.10;15.40;;;538.00;2304.00;;;;;;5108648;27;20080;-75
2021/11/01 11:24:27;;;;;;;19.13;14.77;;;589.70;1843.20;;;;;;5063665;28;20456;-75
2021/11/01 11:49:05;;;;;;;21.10;16.55;;;640.00;1664.00;;;;;;5124678;28;20414;-76
2021/11/01 11:51:30;;;;;;;25.20;18.10;;;640.30;1638.40;;;;;;5109544;28;20042;-76
2021/11/01 11:54:02;;;;;;;24.58;17.10;;;640.00;1664.00;;;;;;5103692;28;20043;-76
2021/11/01 11:56:40;;;;;;;23.50;17.58;;;615.30;1664.00;;;;;;5099779;28;20015;-76
2021/11/01 11:59:10;;;;;;;20.17;16.58;;;615.30;1664.00;;;;;;5104345;28;20027;-76
2021/11/01 12:01:40;;;;;;;28.70;17.67;;;615.30;1664.00;;;;;;5100066;28;20038;-76
2021/11/01 12:04:20;;;;;;;22.30;16.92;;;615.20;1638.40;;;;;;5100307;28;20498;-77
2021/11/01 12:06:57;;;;;;;27.83;18.30;;;640.00;1638.40;;;;;;5105803;28;20042;-76
2021/11/01 12:09:45;;;;;;;23.23;16.42;;;640.40;1638.40;;;;;;5125304;28;20019;-76
2021/11/01 12:12:37;;;;;;;24.83;17.10;;;640.10;1612.80;;;;;;5105365;28;20026;-76
2021/11/01 12:17:50;;;;;;;22.48;16.05;;;640.10;1612.80;;;;;;5123863;27;20064;-76
2021/11/01 12:20:16;;;;;;;22.65;16.70;;;640.30;1587.20;;;;;;5108789;28;20084;-76
2021/11/01 12:22:46;;;;;;;22.40;16.63;;;640.50;1587.20;;;;;;5104418;28;20023;-76
2021/11/01 12:25:16;;;;;;;27.98;18.90;;;640.10;1587.20;;;;;;5101985;28;20384;-76
2021/11/01 12:27:50;;;;;;;21.13;17.10;;;640.10;1587.20;;;;;;5124166;28;20015;-76
2021/11/01 12:30:18;;;;;;;19.10;15.32;;;640.00;1587.20;;;;;;5117953;28;20032;-76
2021/11/01 12:32:45;;;;;;;22.48;16.35;;;615.30;1612.80;;;;;;5103885;28;20038;-76
2021/11/01 12:35:23;;;;;;;25.92;17.90;;;640.10;1587.20;;;;;;5106179;28;20028;-76
2021/11/01 12:38:00;;;;;;;23.13;17.83;;;640.30;1587.20;;;;;;5102628;28;20558;-77
2021/11/01 12:40:51;;;;;;;22.55;17.02;;;640.10;1587.20;;;;;;5106730;28;20080;-77
2021/11/01 12:59:45;;;;;;;25.80;17.60;;;615.10;1587.20;;;;;;5128461;27;20031;-76
2021/11/01 13:02:14;;;;;;;28.48;20.45;;;614.90;1612.80;;;;;;5122136;27;20028;-76
2021/11/01 13:04:42;;;;;;;23.42;17.02;;;614.90;1612.80;;;;;;5127763;27;20015;-77
2021/11/01 13:07:37;;;;;;;20.40;15.63;;;614.90;1612.80;;;;;;5123135;27;20483;-76
2021/11/01 13:10:06;;;;;;;19.55;15.68;;;615.00;1587.20;;;;;;5126645;27;20043;-77
2021/11/01 13:12:50;;;;;;;22.58;16.90;;;614.80;1587.20;;;;;;5121848;27;20024;-77
2021/11/01 13:18:05;;;;;;;18.88;16.75;;;614.50;1638.40;;;;;;5119974;27;20528;-76
2021/11/01 13:20:31;;;;;;;23.52;17.42;;;614.60;1612.80;;;;;;5119810;27;20022;-79
2021/11/01 13:23:00;;;;;;;26.67;18.27;;;614.40;1612.80;;;;;;5153069;27;20031;-79
2021/11/01 13:25:50;;;;;;;25.52;18.95;;;589.70;1612.80;;;;;;5136176;27;20051;-79
2021/11/01 13:36:48;;;;;;;22.50;17.85;;;589.40;1638.40;;;;;;5132331;27;20016;-78
2021/11/01 13:39:26;;;;;;;21.90;19.52;;;589.20;1664.00;;;;;;5110112;27;20031;-77
2021/11/01 13:41:52;;;;;;;22.02;16.48;;;589.20;1664.00;;;;;;5123830;27;20050;-77
2021/11/01 13:44:27;;;;;;;23.08;17.73;;;589.10;1664.00;;;;;;5112941;27;20408;-77
2021/11/01 13:47:02;;;;;;;23.83;19.05;;;564.10;1689.60;;;;;;5123403;27;20023;-77
2021/11/01 13:49:34;;;;;;;26.48;19.55;;;564.10;1689.60;;;;;;5120866;27;20032;-76
2021/11/01 13:52:21;;;;;;;23.05;18.45;;;588.80;1689.60;;;;;;5108970;27;20036;-76
2021/11/01 13:57:30;;;;;;;27.83;19.33;;;563.90;1689.60;;;;;;5125431;27;20034;-77
2021/11/01 14:03:06;;;;;;;27.55;19.92;;;563.70;1715.20;;;;;;5023420;28;20034;-76
2021/11/01 14:14:17;;;;;;;28.02;19.80;;;538.30;1740.80;;;;;;4988082;28;20085;-79
2021/11/01 14:16:59;;;;;;;26.67;19.95;;;538.10;1740.80;;;;;;4985836;28;20491;-79
2021/11/01 14:57:52;;;;;;;41.50;29.70;;;487.00;1894.40;;;;;;5123725;27;20515;-79
2021/11/01 15:18:42;;;;;;;54.40;36.35;;;460.80;2150.40;;;;;;5123764;27;20512;-79
2021/11/01 15:34:52;;;;;;;45.22;36.72;;;410.50;2355.20;;;;;;5031682;28;20086;-77
2021/11/01 16:20:09;;;;;;;77.38;51.65;;;359.30;2329.60;;;;;;5122398;28;20023;-77
2021/11/01 16:22:39;;;;;;;76.82;49.65;;;359.30;2329.60;;;;;;5118400;28;20519;-76
2021/11/01 16:25:05;;;;;;;70.60;48.75;;;359.20;2329.60;;;;;;5124446;28;20054;-76
2021/11/01 16:27:33;;;;;;;81.60;50.47;;;359.10;2329.60;;;;;;5105553;28;20850;-77
2021/11/01 16:32:34;;;;;;;94.30;59.13;;;358.90;2329.60;;;;;;5119685;27;20156;-77
2021/11/01 16:35:05;;;;;;;69.05;50.08;;;358.90;2329.60;;;;;;5125361;27;20015;-77
2021/11/01 16:40:05;;;;;;;70.30;48.17;;;358.70;2329.60;;;;;;5126064;27;20047;-75
2021/11/01 16:42:36;;;;;;;67.82;46.95;;;358.70;2329.60;;;;;;5118024;27;20434;-76
2021/11/01 16:45:35;;;;;;;82.47;50.95;;;358.60;2329.60;;;;;;5108108;27;20022;-76
2021/11/01 16:48:00;;;;;;;91.20;57.03;;;358.50;2329.60;;;;;;5128855;27;20128;-76
2021/11/01 16:50:27;;;;;;;100.97;59.85;;;358.40;2329.60;;;;;;5108361;27;20993;-76
2021/11/01 16:52:54;;;;;;;96.05;60.30;;;333.70;2329.60;;;;;;5102784;27;20028;-77
2021/11/01 16:55:27;;;;;;;105.85;71.15;;;333.60;2329.60;;;;;;5124779;27;20480;-77
2021/11/01 16:57:56;;;;;;;109.07;69.25;;;333.50;2329.60;;;;;;5101817;27;20038;-76
2021/11/01 18:41:43;;;;;;;46.95;33.97;;;307.40;2304.00;;;;;;5121882;27;20100;-77
2021/11/01 18:52:15;;;;;;;56.63;33.75;;;307.20;2304.00;;;;;;5082902;28;20066;-77
2021/11/01 18:54:44;;;;;;;56.72;36.92;;;307.20;2304.00;;;;;;5089876;28;20023;-77
2021/11/01 18:57:12;;;;;;;54.20;35.42;;;307.20;2304.00;;;;;;5090797;28;20476;-76
2021/11/01 18:59:40;;;;;;;53.70;34.92;;;282.50;2278.40;;;;;;5079290;28;20031;-76
2021/11/01 19:05:29;;;;;;;60.05;41.00;;;282.40;2278.40;;;;;;5081424;28;20039;-76
2021/11/01 19:08:08;;;;;;;57.75;37.45;;;282.40;2278.40;;;;;;5081252;28;20488;-76
2021/11/01 21:26:09;;;;;;;42.17;28.73;;;282.30;2278.40;;;;;;5127437;27;20536;-77
2021/11/01 21:28:35;;;;;;;55.05;30.73;;;282.30;2278.40;;;;;;5110114;27;20439;-77
2021/11/01 21:31:04;;;;;;;44.38;27.50;;;282.30;2278.40;;;;;;5104900;27;20024;-77
2021/11/01 21:33:33;;;;;;;39.33;26.73;;;282.30;2278.40;;;;;;5106382;27;20027;-77
2021/11/01 21:36:05;;;;;;;41.67;26.50;;;282.30;2278.40;;;;;;5123785;27;20111;-76
2021/11/01 21:38:32;;;;;;;42.88;28.67;;;282.30;2278.40;;;;;;5127872;27;20494;-76
2021/11/01 21:40:57;;;;;;;44.33;28.65;;;282.20;2278.40;;;;;;5110150;27;20031;-76
2021/11/01 21:43:23;;;;;;;37.65;27.67;;;282.30;2278.40;;;;;;5123589;27;20045;-77
2021/11/01 21:45:50;;;;;;;42.97;29.27;;;282.30;2278.40;;;;;;5104269;27;20058;-75
2021/11/01 21:48:16;;;;;;;40.67;26.08;;;282.20;2278.40;;;;;;5127629;27;20496;-77
2021/11/01 21:50:45;;;;;;;43.17;28.48;;;282.20;2278.40;;;;;;5124859;27;20093;-77
2021/11/01 21:53:11;;;;;;;49.10;30.45;;;282.20;2278.40;;;;;;5106523;27;20374;-78
2021/11/01 21:55:37;;;;;;;40.70;27.85;;;282.20;2278.40;;;;;;5111272;27;20026;-76
2021/11/01 22:17:11;;;;;;;35.75;24.10;;;282.30;2278.40;;;;;;5134167;27;20136;-77
2021/11/01 22:58:24;;;;;;;44.42;26.67;;;282.10;2278.40;;;;;;5119085;27;20023;-78
2021/11/01 23:01:06;;;;;;;41.78;29.60;;;282.00;2278.40;;;;;;5103448;27;20023;-78
2021/11/01 23:33:52;;;;;;;40.25;25.90;;;281.70;2278.40;;;;;;5050441;28;20466;-77
2021/11/01 23:36:18;;;;;;;36.58;25.02;;;281.80;2278.40;;;;;;5033147;28;20032;-78
2021/11/01 23:38:44;;;;;;;38.35;25.58;;;281.80;2278.40;;;;;;5042405;28;20033;-78
2021/11/01 23:41:10;;;;;;;36.70;24.98;;;281.80;2278.40;;;;;;5046434;28;20041;-78
2021/11/01 23:43:36;;;;;;;33.80;24.52;;;281.80;2278.40;;;;;;5042924;28;20033;-78
2021/11/01 23:46:02;;;;;;;38.60;25.67;;;281.80;2278.40;;;;;;5043707;28;20082;-78
2021/11/01 23:48:28;;;;;;;38.05;24.50;;;281.80;2278.40;;;;;;5048308;28;20045;-78
2021/11/01 23:50:55;;;;;;;37.47;25.83;;;281.80;2278.40;;;;;;5033875;28;20044;-78
2021/11/01 23:56:06;;;;;;;41.15;26.45;;;281.70;2278.40;;;;;;5040960;28;20563;-78
2021/11/01 23:58:34;;;;;;;40.08;27.33;;;281.70;2278.40;;;;;;5047853;28;20131;-78
